Time;durP1;ratioP1;P1;durP2;ratioP2;P2;SDS_P1;SDS_P2;PMS_P1;PMS_P2;Temp;Humidity;BMP_temperature;BMP_pressure;BME280_temperature;BME280_humidity;BME280_pressure;Samples;Min_cycle;Max_cycle;Signal;HPM_P1;HPM_P2
2022/05/09 00:00:29;;;;;;;6.93;2.93;;;;;;;9.98;50.53;101902.81;2080908;28;20487;-65
2022/05/09 00:01:30;;;;;;;6.47;2.50;;;;;;;10.32;50.94;101953.84;2081246;28;20181;-65
2022/05/09 00:02:30;;;;;;;4.60;2.67;;;;;;;10.27;50.39;101960.59;2081358;28;20177;-65
2022/05/09 00:03:32;;;;;;;5.47;2.90;;;;;;;10.23;50.60;101959.00;2081678;28;20181;-65
2022/05/09 00:04:32;;;;;;;5.10;2.90;;;;;;;10.18;51.16;101956.63;2081203;28;20192;-65
2022/05/09 00:05:33;;;;;;;4.47;2.93;;;;;;;10.16;50.76;101954.28;2081544;28;20184;-64
2022/05/09 00:06:33;;;;;;;4.10;2.90;;;;;;;9.74;50.78;101881.50;2081522;28;20178;-64
2022/05/09 00:07:34;;;;;;;4.40;2.83;;;;;;;9.65;50.48;101868.06;2081641;28;20690;-64
2022/05/09 00:08:34;;;;;;;4.57;2.63;;;;;;;10.24;50.99;101960.59;2081404;28;20181;-64
2022/05/09 00:09:35;;;;;;;5.30;2.90;;;;;;;10.21;51.06;101962.19;2081137;28;20192;-65
2022/05/09 00:10:35;;;;;;;5.13;2.57;;;;;;;9.93;51.24;101915.09;2080138;28;20185;-64
2022/05/09 00:11:36;;;;;;;7.97;2.97;;;;;;;10.24;50.81;101966.16;2081527;28;20189;-64
2022/05/09 00:12:37;;;;;;;5.30;2.53;;;;;;;10.23;51.01;101968.13;2080720;28;20181;-65
2022/05/09 00:13:38;;;;;;;10.30;2.83;;;;;;;10.21;50.98;101958.63;2080899;28;20269;-64
2022/05/09 00:14:38;;;;;;;12.00;3.75;;;;;;;10.25;50.90;101967.72;2081011;28;20184;-64
2022/05/09 00:15:39;;;;;;;9.30;3.33;;;;;;;10.26;50.84;101964.53;2089570;28;20189;-65
2022/05/09 00:16:40;;;;;;;9.70;3.60;;;;;;;10.26;51.16;101964.53;2089065;28;20193;-65
2022/05/09 00:17:41;;;;;;;9.20;2.95;;;;;;;10.22;51.09;101966.53;2089072;28;20288;-64
2022/05/09 00:18:41;;;;;;;7.80;3.07;;;;;;;10.22;51.00;101965.72;2089132;28;20185;-64
2022/05/09 00:19:42;;;;;;;9.10;3.97;;;;;;;9.66;50.93;101879.91;2088979;28;20224;-64
2022/05/09 00:20:42;;;;;;;10.90;3.83;;;;;;;10.22;51.34;101963.78;2088930;28;20267;-64
2022/05/09 00:21:43;;;;;;;11.73;3.50;;;;;;;10.19;51.79;101975.63;2088322;28;20207;-64
2022/05/09 00:22:53;;;;;;;11.70;3.73;;;;;;;10.18;51.46;101970.47;2081200;28;20733;-65
2022/05/09 00:23:54;;;;;;;10.18;3.60;;;;;;;10.16;51.21;101968.13;2081349;28;20443;-64
2022/05/09 00:24:54;;;;;;;10.20;3.60;;;;;;;9.93;51.81;101928.94;2080705;28;20181;-64
2022/05/09 00:25:55;;;;;;;6.13;3.13;;;;;;;9.47;51.17;101855.38;2081421;28;20185;-64
2022/05/09 00:26:57;;;;;;;6.73;3.23;;;;;;;9.90;51.20;101923.41;2081409;28;20186;-65
2022/05/09 00:27:57;;;;;;;7.15;3.10;;;;;;;10.19;51.52;101969.31;2081453;28;20187;-65
2022/05/09 00:29:00;;;;;;;9.57;3.00;;;;;;;10.19;51.40;101977.63;2081640;28;20184;-64
2022/05/09 00:30:00;;;;;;;6.40;2.77;;;;;;;9.90;51.74;101924.16;2081277;28;20181;-64
2022/05/09 00:31:01;;;;;;;4.47;2.80;;;;;;;10.11;52.09;101951.09;2080812;28;20427;-65
2022/05/09 00:32:02;;;;;;;7.67;2.90;;;;;;;10.15;51.21;101963.75;2081357;28;20172;-65
2022/05/09 00:33:02;;;;;;;8.17;2.60;;;;;;;10.09;51.78;101968.13;2081225;28;20212;-65
2022/05/09 00:34:03;;;;;;;4.53;2.87;;;;;;;10.11;51.65;101968.53;2081216;28;20186;-65
2022/05/09 00:35:04;;;;;;;5.87;2.97;;;;;;;10.09;51.96;101962.56;2080829;28;20319;-65
2022/05/09 00:36:05;;;;;;;8.38;3.10;;;;;;;10.10;51.76;101968.91;2081330;28;20176;-66
2022/05/09 00:37:06;;;;;;;5.63;2.50;;;;;;;10.10;51.38;101963.38;2081176;28;20209;-66
2022/05/09 00:38:08;;;;;;;5.33;2.53;;;;;;;10.10;51.52;101961.38;2079974;28;20457;-65
2022/05/09 00:39:10;;;;;;;7.67;2.70;;;;;;;10.04;51.74;101953.91;2080786;28;20186;-65
2022/05/09 00:40:13;;;;;;;9.13;2.53;;;;;;;9.93;52.03;101937.25;2080695;28;20430;-66
2022/05/09 00:41:31;;;;;;;12.80;3.47;;;;;;;10.17;51.61;101966.94;2081314;28;20424;-65
2022/05/09 00:42:32;;;;;;;14.80;4.30;;;;;;;10.19;51.56;101959.00;2081201;28;20403;-66
2022/05/09 00:43:38;;;;;;;15.87;4.40;;;;;;;10.20;51.29;101965.34;2081183;28;20432;-66
2022/05/09 00:44:39;;;;;;;8.47;3.30;;;;;;;9.81;51.51;101900.84;2080766;28;20184;-65
2022/05/09 00:45:39;;;;;;;8.13;3.17;;;;;;;10.03;51.45;101944.75;2080363;28;20438;-66
2022/05/09 00:46:42;;;;;;;8.90;3.10;;;;;;;10.18;52.09;101965.75;2080730;28;20187;-66
2022/05/09 00:47:43;;;;;;;7.50;2.87;;;;;;;10.21;51.22;101959.41;2081297;28;20230;-66
2022/05/09 00:48:44;;;;;;;6.00;2.63;;;;;;;10.21;51.49;101972.47;2081327;28;20811;-65
2022/05/09 00:49:51;;;;;;;4.33;2.60;;;;;;;9.87;51.22;101918.63;2081260;28;20420;-66
2022/05/09 00:50:52;;;;;;;6.82;3.17;;;;;;;9.11;50.98;101803.97;2080594;28;20177;-65
2022/05/09 00:52:12;;;;;;;5.65;2.92;;;;;;;10.12;51.01;101964.56;2081095;28;20190;-65
2022/05/09 00:53:13;;;;;;;6.17;3.00;;;;;;;10.06;50.90;101968.94;2081339;28;20174;-66
2022/05/09 00:54:14;;;;;;;5.73;2.87;;;;;;;9.53;50.80;101898.09;2080407;28;20505;-65
2022/05/09 00:55:27;;;;;;;5.57;3.03;;;;;;;10.01;50.59;101968.50;2071669;28;20458;-65
2022/05/09 00:56:39;;;;;;;5.27;2.77;;;;;;;9.95;50.92;101959.00;2080664;28;20399;-65
2022/05/09 00:57:50;;;;;;;6.45;3.08;;;;;;;9.38;50.70;101883.44;2081243;28;20482;-65
2022/05/09 00:59:00;;;;;;;4.82;2.90;;;;;;;9.71;51.08;101949.50;2081238;28;20697;-65
2022/05/09 01:00:07;;;;;;;4.82;2.70;;;;;;;9.81;50.87;101961.75;2081047;28;20469;-65
2022/05/09 01:01:10;;;;;;;15.32;4.35;;;;;;;9.37;51.13;101908.75;2080809;28;20249;-65
2022/05/09 01:02:14;;;;;;;15.85;4.20;;;;;;;9.71;51.16;101965.31;2081066;28;20194;-65
2022/05/09 01:03:37;;;;;;;12.45;3.80;;;;;;;9.38;51.57;101913.88;2080958;28;20735;-65
2022/05/09 01:04:47;;;;;;;5.10;2.88;;;;;;;9.62;51.41;101957.41;2073412;28;20192;-65
2022/05/09 01:05:50;;;;;;;18.77;4.60;;;;;;;9.10;51.29;101880.66;2080370;28;20189;-65
2022/05/09 01:06:55;;;;;;;13.95;4.07;;;;;;;9.46;51.78;101945.13;2080502;28;20422;-65
2022/05/09 01:07:56;;;;;;;10.90;3.72;;;;;;;9.52;51.46;101974.78;2081030;28;20182;-65
2022/05/09 01:08:56;;;;;;;6.05;3.00;;;;;;;9.50;51.98;101965.28;2081156;28;20174;-65
2022/05/09 01:09:58;;;;;;;6.57;3.23;;;;;;;9.46;51.86;101959.75;2081024;28;20188;-65
2022/05/09 01:11:01;;;;;;;7.45;3.20;;;;;;;9.40;51.39;101960.53;2080403;28;20188;-65
2022/05/09 01:12:03;;;;;;;7.88;3.38;;;;;;;9.41;51.88;101968.44;2080920;28;20175;-65
2022/05/09 01:13:07;;;;;;;8.73;3.42;;;;;;;9.07;51.38;101920.13;2081016;28;20182;-65
2022/05/09 01:14:18;;;;;;;6.90;3.55;;;;;;;9.04;51.83;101925.66;2080928;28;20269;-65
2022/05/09 01:15:18;;;;;;;6.43;3.40;;;;;;;9.30;51.38;101964.06;2085782;28;20172;-65
2022/05/09 01:16:20;;;;;;;7.60;3.53;;;;;;;9.27;51.48;101964.84;2088606;28;20190;-65
2022/05/09 01:17:23;;;;;;;7.57;3.60;;;;;;;9.24;50.99;101968.38;2088889;28;20208;-65
2022/05/09 01:18:24;;;;;;;7.22;3.42;;;;;;;9.16;51.18;101964.81;2089183;28;20292;-65
2022/05/09 01:19:30;;;;;;;8.03;3.60;;;;;;;9.17;51.41;101969.16;2089234;28;20174;-65
2022/05/09 01:20:31;;;;;;;6.82;3.15;;;;;;;9.14;51.39;101981.00;2087611;28;20555;-65
2022/05/09 01:21:39;;;;;;;6.90;3.37;;;;;;;9.13;51.25;101970.34;2088523;28;20311;-65
2022/05/09 01:22:42;;;;;;;5.57;3.63;;;;;;;8.75;51.31;101915.66;2074887;28;20172;-65
2022/05/09 01:23:43;;;;;;;9.80;3.40;;;;;;;9.05;51.63;101965.94;2080921;28;20173;-65
2022/05/09 01:24:44;;;;;;;9.90;4.03;;;;;;;8.94;51.98;101970.66;2080541;28;20204;-66
2022/05/09 01:25:44;;;;;;;7.53;3.60;;;;;;;8.80;52.04;101963.09;2080827;28;20540;-65
2022/05/09 01:26:45;;;;;;;5.13;3.13;;;;;;;8.81;51.63;101970.19;2080849;28;20181;-65
2022/05/09 01:27:47;;;;;;;6.63;3.27;;;;;;;8.51;51.99;101949.53;2081206;28;20262;-65
2022/05/09 01:28:47;;;;;;;5.25;3.38;;;;;;;8.61;52.40;101973.66;2080950;28;20455;-65
2022/05/09 01:29:57;;;;;;;10.40;4.30;;;;;;;8.40;52.50;101979.06;2080933;28;20177;-65
2022/05/09 01:31:02;;;;;;;12.68;4.57;;;;;;;8.40;53.02;101974.31;2080216;28;20215;-65
2022/05/09 01:32:04;;;;;;;12.55;4.10;;;;;;;8.32;53.23;101967.16;2080993;28;20243;-65
2022/05/09 01:33:05;;;;;;;12.40;4.55;;;;;;;8.26;53.24;101979.72;2080734;28;20195;-66
2022/05/09 01:34:09;;;;;;;8.53;3.67;;;;;;;8.20;53.68;101978.50;2080871;28;20252;-66
2022/05/09 01:35:34;;;;;;;10.65;4.70;;;;;;;8.10;53.91;101961.84;2080249;28;20678;-66
2022/05/09 01:36:36;;;;;;;19.02;4.32;;;;;;;8.05;53.98;101973.25;2080882;28;20161;-66
2022/05/09 01:37:39;;;;;;;15.25;5.10;;;;;;;8.05;54.58;101978.78;2080937;28;20208;-65
2022/05/09 01:38:56;;;;;;;18.23;5.30;;;;;;;7.99;54.67;101966.50;2080947;28;20180;-64
2022/05/09 01:39:57;;;;;;;17.95;4.53;;;;;;;7.98;54.91;101981.44;2080864;28;20587;-65
2022/05/09 01:40:57;;;;;;;8.73;3.70;;;;;;;7.95;54.97;101974.72;2080093;28;20238;-65
2022/05/09 01:42:04;;;;;;;9.73;3.93;;;;;;;7.96;54.24;101972.78;2080596;28;20186;-65
2022/05/09 01:43:04;;;;;;;6.75;3.70;;;;;;;7.98;54.40;101975.94;2080901;28;20167;-65
2022/05/09 01:44:07;;;;;;;8.23;3.87;;;;;;;7.96;54.19;101978.28;2080800;28;20631;-65
2022/05/09 01:45:09;;;;;;;6.03;3.70;;;;;;;7.95;54.83;101979.47;2079932;28;20173;-65
2022/05/09 01:46:13;;;;;;;7.53;3.60;;;;;;;7.93;55.24;101974.31;2080913;28;20187;-64
2022/05/09 01:49:52;;;;;;;13.65;4.53;;;;;;;7.90;55.06;101980.59;2080823;28;20219;-65
2022/05/09 01:50:53;;;;;;;16.33;4.70;;;;;;;7.86;55.26;101973.47;2079977;28;20199;-65
2022/05/09 01:51:53;;;;;;;11.60;4.80;;;;;;;7.82;55.84;101980.94;2080625;28;20181;-65
2022/05/09 01:52:54;;;;;;;13.93;4.70;;;;;;;7.19;55.31;101881.03;2080825;28;20264;-65
2022/05/09 01:53:55;;;;;;;11.65;4.30;;;;;;;7.75;55.62;101978.88;2080792;28;20180;-65
2022/05/09 01:54:56;;;;;;;12.07;4.40;;;;;;;7.74;55.60;101982.81;2079925;28;20180;-65
2022/05/09 01:55:57;;;;;;;9.60;4.47;;;;;;;7.27;56.23;101904.72;2080806;28;20186;-65
2022/05/09 01:56:57;;;;;;;12.67;4.07;;;;;;;7.30;56.21;101909.50;2080706;28;20580;-65
2022/05/09 01:57:58;;;;;;;13.50;4.50;;;;;;;7.43;55.72;101933.66;2080834;28;20187;-65
2022/05/09 01:58:59;;;;;;;15.63;4.17;;;;;;;7.22;56.13;101905.88;2080814;28;20290;-65
2022/05/09 01:59:59;;;;;;;7.57;3.90;;;;;;;7.74;56.31;101974.53;2080821;28;20617;-65
2022/05/09 02:01:00;;;;;;;12.13;4.27;;;;;;;7.75;56.08;101978.88;2080092;28;20175;-65
2022/05/09 02:02:07;;;;;;;6.37;3.50;;;;;;;7.42;56.08;101926.56;2079953;28;20175;-65
2022/05/09 02:03:08;;;;;;;7.55;3.90;;;;;;;7.65;56.45;101962.25;2080219;28;20176;-64
2022/05/09 02:04:11;;;;;;;5.53;3.67;;;;;;;7.72;56.43;101982.44;2080575;28;20208;-65
2022/05/09 02:05:12;;;;;;;7.82;3.85;;;;;;;7.69;56.21;101985.94;2080099;28;20180;-64
2022/05/09 02:06:14;;;;;;;7.50;4.00;;;;;;;7.62;56.85;101977.59;2080796;28;20191;-64
2022/05/09 02:07:17;;;;;;;15.50;5.10;;;;;;;7.64;56.69;101996.53;2080678;28;20206;-65
2022/05/09 02:08:18;;;;;;;17.67;6.07;;;;;;;7.60;56.80;101984.66;2080796;28;20175;-65
2022/05/09 02:09:19;;;;;;;24.73;6.87;;;;;;;7.56;57.35;101986.59;2080671;28;20237;-66
2022/05/09 02:10:19;;;;;;;36.47;7.57;;;;;;;6.96;56.99;101886.69;2079820;28;20176;-66
2022/05/09 02:11:20;;;;;;;41.17;9.80;;;;;;;7.53;57.76;101990.13;2080774;28;20181;-65
2022/05/09 02:12:21;;;;;;;32.57;6.97;;;;;;;6.75;57.46;101871.88;2079964;28;20264;-66
2022/05/09 02:13:21;;;;;;;28.77;6.73;;;;;;;7.50;57.48;101985.34;2079993;28;20182;-65
2022/05/09 02:14:22;;;;;;;29.00;6.17;;;;;;;7.48;57.43;101984.94;2080726;28;20184;-65
2022/05/09 02:15:23;;;;;;;13.40;5.03;;;;;;;7.35;57.93;101969.81;2085749;28;20172;-65
2022/05/09 02:16:24;;;;;;;12.87;4.90;;;;;;;7.50;57.78;101988.09;2088875;28;20735;-65
2022/05/09 02:17:24;;;;;;;9.20;4.82;;;;;;;7.46;58.32;101984.53;2088892;28;20196;-65
2022/05/09 02:18:25;;;;;;;7.43;4.70;;;;;;;6.71;58.23;101865.56;2088881;28;20214;-65
2022/05/09 02:19:25;;;;;;;8.13;4.47;;;;;;;7.39;57.82;101985.22;2088202;28;20194;-65
2022/05/09 02:20:26;;;;;;;9.97;4.77;;;;;;;6.50;58.20;101851.53;2087432;28;20200;-66
2022/05/09 02:21:26;;;;;;;7.40;4.57;;;;;;;7.27;58.30;101968.16;2088777;28;20179;-66
2022/05/09 02:22:29;;;;;;;11.70;4.40;;;;;;;7.40;58.10;101989.59;2081469;28;20177;-65
2022/05/09 02:23:29;;;;;;;7.80;4.68;;;;;;;7.45;58.35;101994.78;2080475;28;20286;-66
2022/05/09 02:24:30;;;;;;;7.13;4.30;;;;;;;7.35;58.29;101970.63;2079611;28;20667;-66
2022/05/09 02:25:31;;;;;;;10.50;4.67;;;;;;;7.52;58.26;101994.84;2079750;28;20176;-66
2022/05/09 02:26:33;;;;;;;8.87;4.07;;;;;;;7.10;58.14;101932.91;2080556;28;20177;-66
2022/05/09 02:27:33;;;;;;;7.70;4.47;;;;;;;7.57;58.65;101975.19;2080775;28;20175;-66
2022/05/09 02:28:34;;;;;;;8.80;4.13;;;;;;;6.89;58.09;101872.84;2080489;28;20183;-66
2022/05/09 02:29:37;;;;;;;9.00;4.53;;;;;;;6.95;58.09;101878.81;2080652;28;20734;-66
2022/05/09 02:30:39;;;;;;;7.97;4.32;;;;;;;7.18;57.71;101929.84;2079247;28;20715;-67
2022/05/09 02:31:40;;;;;;;8.20;4.40;;;;;;;7.62;57.88;101990.59;2071884;28;20271;-66
2022/05/09 02:32:40;;;;;;;9.77;4.60;;;;;;;7.46;58.70;101979.81;2079851;28;20180;-67
2022/05/09 02:33:41;;;;;;;9.20;4.87;;;;;;;7.21;57.89;101951.16;2089245;28;20187;-67
2022/05/09 02:34:41;;;;;;;7.57;4.37;;;;;;;7.57;58.38;101988.97;2089308;28;20337;-67
2022/05/09 02:35:43;;;;;;;9.80;5.73;;;;;;;7.37;58.20;101965.53;2082087;28;20398;-67
2022/05/09 02:36:43;;;;;;;9.45;4.80;;;;;;;7.54;58.27;101994.47;2082238;28;20573;-67
2022/05/09 02:37:44;;;;;;;10.87;5.53;;;;;;;7.59;58.46;101994.13;2082276;28;20251;-67
2022/05/09 02:38:44;;;;;;;14.73;5.67;;;;;;;7.62;58.42;101991.38;2082246;28;20624;-67
2022/05/09 02:39:46;;;;;;;15.53;5.10;;;;;;;7.67;58.39;101990.25;2082092;28;20231;-67
2022/05/09 02:40:46;;;;;;;14.75;6.03;;;;;;;7.71;57.60;101997.41;2081505;28;20173;-67
2022/05/09 02:41:48;;;;;;;11.80;5.07;;;;;;;7.71;57.76;101993.84;2082008;28;20184;-66
2022/05/09 02:42:48;;;;;;;9.73;4.47;;;;;;;7.76;57.83;101988.78;2082201;28;20181;-67
2022/05/09 02:43:49;;;;;;;14.83;5.07;;;;;;;7.78;57.81;101989.19;2082155;28;20207;-67
2022/05/09 02:44:52;;;;;;;10.35;5.45;;;;;;;7.82;58.07;101997.47;2081563;28;20653;-67
2022/05/09 02:45:53;;;;;;;13.73;4.78;;;;;;;7.84;57.89;101995.94;2082166;28;20191;-67
2022/05/09 02:46:53;;;;;;;10.17;4.90;;;;;;;7.86;57.81;101993.59;2081512;28;20177;-67
2022/05/09 02:47:54;;;;;;;14.50;4.83;;;;;;;7.89;57.94;101992.03;2081484;28;20212;-67
2022/05/09 02:48:59;;;;;;;14.52;5.97;;;;;;;7.54;57.61;101942.81;2082229;28;20176;-67
2022/05/09 02:50:00;;;;;;;19.42;5.78;;;;;;;7.94;57.74;101998.00;2081931;28;20256;-67
2022/05/09 02:51:01;;;;;;;12.87;5.17;;;;;;;7.92;57.47;101989.31;2081386;28;20172;-67
2022/05/09 02:52:04;;;;;;;13.52;5.93;;;;;;;7.90;57.29;101985.34;2081990;28;20177;-67
2022/05/09 02:53:08;;;;;;;12.00;5.63;;;;;;;7.99;57.59;101994.09;2082188;28;20173;-67
2022/05/09 02:54:09;;;;;;;11.88;5.63;;;;;;;7.72;57.56;101954.84;2082092;28;20200;-67
2022/05/09 02:55:11;;;;;;;12.93;5.35;;;;;;;8.00;57.60;101988.19;2081349;28;20567;-67
2022/05/09 02:56:11;;;;;;;10.40;5.28;;;;;;;7.77;57.57;101953.69;2082109;28;20196;-67
2022/05/09 02:57:12;;;;;;;12.50;5.50;;;;;;;8.02;57.91;101998.84;2082060;28;20716;-67
2022/05/09 02:58:13;;;;;;;10.47;4.80;;;;;;;8.06;57.17;101997.72;2081445;28;20183;-66
2022/05/09 02:59:14;;;;;;;12.00;5.35;;;;;;;7.88;57.67;101965.59;2081622;28;20655;-66
2022/05/09 03:00:21;;;;;;;8.70;4.73;;;;;;;8.11;57.47;102000.09;2081267;28;20528;-66
2022/05/09 03:01:22;;;;;;;8.95;4.93;;;;;;;7.96;57.00;101981.84;2082001;28;20173;-66
2022/05/09 03:02:23;;;;;;;10.47;5.03;;;;;;;7.99;56.85;101972.03;2081335;28;20192;-66
2022/05/09 03:04:43;;;;;;;13.13;5.10;;;;;;;8.18;57.00;101997.41;2081754;28;20169;-66
2022/05/09 03:05:45;;;;;;;10.00;5.60;;;;;;;8.09;56.93;101985.13;2081768;28;20669;-66
2022/05/09 03:06:46;;;;;;;9.68;5.30;;;;;;;8.19;57.51;102004.50;2081828;28;20264;-66
2022/05/09 03:07:46;;;;;;;12.67;5.10;;;;;;;8.21;57.27;101999.41;2081858;28;20204;-66
2022/05/09 03:08:47;;;;;;;15.87;5.80;;;;;;;8.02;57.13;101968.47;2082087;28;20181;-66
2022/05/09 03:09:49;;;;;;;15.10;5.93;;;;;;;8.14;56.80;101987.50;2081982;28;20185;-66
2022/05/09 03:10:49;;;;;;;17.58;6.10;;;;;;;7.84;56.71;101942.72;2081319;28;20185;-66
2022/05/09 03:11:50;;;;;;;9.10;4.33;;;;;;;8.14;56.83;102007.63;2081794;28;20185;-66
2022/05/09 03:12:50;;;;;;;14.83;5.73;;;;;;;8.10;56.45;102006.03;2082007;28;20552;-66
2022/05/09 03:13:51;;;;;;;12.90;4.87;;;;;;;8.06;56.28;102006.00;2081921;28;20275;-66
2022/05/09 03:14:52;;;;;;;12.73;5.07;;;;;;;7.96;56.49;102003.94;2082858;28;20188;-66
2022/05/09 03:15:52;;;;;;;9.77;5.23;;;;;;;7.70;56.42;101976.47;2090137;28;20666;-66
2022/05/09 03:16:53;;;;;;;10.77;5.30;;;;;;;7.94;56.99;102008.25;2090306;28;20185;-66
2022/05/09 03:17:54;;;;;;;12.43;5.00;;;;;;;7.91;57.38;102011.75;2090117;28;20333;-66
2022/05/09 03:18:55;;;;;;;9.50;5.68;;;;;;;7.68;56.89;101980.81;2090248;28;20562;-66
2022/05/09 03:19:57;;;;;;;8.38;4.90;;;;;;;7.89;57.08;102011.38;2090109;28;20672;-66
2022/05/09 03:20:58;;;;;;;9.48;5.10;;;;;;;7.85;57.14;101999.50;2089354;28;20180;-66
2022/05/09 03:21:58;;;;;;;8.53;5.10;;;;;;;7.94;56.79;102011.03;2086589;28;20212;-66
2022/05/09 03:22:59;;;;;;;10.50;5.13;;;;;;;7.97;56.56;102008.28;2081704;28;20255;-66
2022/05/09 03:24:00;;;;;;;10.33;5.03;;;;;;;7.99;56.46;102014.22;2081870;28;20165;-66
2022/05/09 03:25:01;;;;;;;13.83;5.40;;;;;;;8.00;56.01;102004.75;2081124;28;20211;-66
2022/05/09 03:26:01;;;;;;;11.37;5.57;;;;;;;7.49;56.66;101923.88;2081648;28;20219;-66
2022/05/09 03:27:03;;;;;;;12.50;5.67;;;;;;;7.43;56.87;101916.34;2081960;28;20323;-66
2022/05/09 03:28:10;;;;;;;10.38;5.53;;;;;;;8.06;56.97;102013.47;2081764;28;20177;-66
2022/05/09 03:29:11;;;;;;;11.73;5.40;;;;;;;8.05;56.99;102015.44;2081929;28;20591;-67
2022/05/09 03:30:14;;;;;;;13.77;5.55;;;;;;;8.08;56.60;102006.41;2081068;28;20312;-67
2022/05/09 03:31:14;;;;;;;12.27;5.40;;;;;;;8.06;56.81;102008.75;2081895;28;20187;-67
2022/05/09 03:32:15;;;;;;;13.17;5.30;;;;;;;8.05;56.60;102003.63;2081670;28;20193;-67
2022/05/09 03:33:16;;;;;;;11.30;5.70;;;;;;;8.12;56.16;102014.72;2081752;28;20239;-67
2022/05/09 03:34:17;;;;;;;11.07;5.20;;;;;;;8.16;56.33;102013.53;2081734;28;20575;-67
2022/05/09 03:35:17;;;;;;;9.10;4.70;;;;;;;7.88;56.18;101965.59;2081128;28;20278;-67
2022/05/09 03:36:18;;;;;;;8.77;4.83;;;;;;;7.96;56.66;101976.34;2081794;28;20173;-67
2022/05/09 03:37:18;;;;;;;12.83;5.40;;;;;;;8.21;56.24;102017.97;2081485;28;20256;-67
2022/05/09 03:38:19;;;;;;;11.33;5.43;;;;;;;8.23;56.12;102019.19;2082178;28;20180;-67
2022/05/09 03:39:20;;;;;;;11.52;5.25;;;;;;;8.25;56.46;102022.34;2081699;28;20177;-67
2022/05/09 03:40:21;;;;;;;10.80;4.67;;;;;;;8.26;56.14;102014.84;2080283;28;20186;-67
2022/05/09 03:41:22;;;;;;;9.55;5.28;;;;;;;8.04;56.27;101983.50;2072862;28;20194;-67
2022/05/09 03:42:22;;;;;;;13.27;5.83;;;;;;;8.28;56.34;102015.25;2080882;28;20205;-67
2022/05/09 03:43:24;;;;;;;22.07;6.53;;;;;;;7.85;56.19;101945.06;2081744;28;20177;-67
2022/05/09 03:44:24;;;;;;;30.02;7.05;;;;;;;8.35;55.92;102018.88;2081650;28;20178;-67
2022/05/09 03:45:25;;;;;;;25.17;6.47;;;;;;;8.26;55.97;102003.81;2081106;28;20637;-67
2022/05/09 03:46:26;;;;;;;28.38;6.80;;;;;;;8.41;56.21;102030.38;2081009;28;20592;-67
2022/05/09 03:47:26;;;;;;;27.27;6.70;;;;;;;8.43;56.17;102030.75;2080975;28;20225;-67
2022/05/09 03:48:27;;;;;;;27.27;6.23;;;;;;;8.44;56.20;102029.56;2081728;28;20639;-67
2022/05/09 03:49:28;;;;;;;16.10;5.90;;;;;;;8.43;56.43;102028.00;2081685;28;20260;-67
2022/05/09 03:50:28;;;;;;;15.00;5.43;;;;;;;8.25;56.02;101991.19;2080871;28;20255;-67
2022/05/09 03:51:30;;;;;;;15.80;5.53;;;;;;;8.39;55.75;102016.13;2081772;28;20238;-67
2022/05/09 03:52:30;;;;;;;10.48;5.15;;;;;;;8.31;55.88;102001.47;2081493;28;20174;-67
2022/05/09 03:53:31;;;;;;;13.27;5.37;;;;;;;8.55;55.50;102034.00;2081671;28;20185;-67
2022/05/09 03:54:31;;;;;;;16.37;5.90;;;;;;;8.07;55.83;101965.38;2081130;28;20193;-67
2022/05/09 03:55:35;;;;;;;16.53;6.10;;;;;;;7.86;55.84;101921.03;2081411;28;20209;-67
2022/05/09 03:56:35;;;;;;;14.18;5.68;;;;;;;7.97;55.43;101949.50;2081594;28;20188;-67
2022/05/09 03:57:54;;;;;;;14.73;5.43;;;;;;;8.59;55.54;102036.78;2081659;28;20207;-67
2022/05/09 03:58:54;;;;;;;10.73;5.30;;;;;;;8.58;54.91;102033.25;2081712;28;20169;-67
2022/05/09 03:59:55;;;;;;;12.17;5.30;;;;;;;8.63;55.08;102034.84;2081646;28;20284;-67
2022/05/09 04:00:55;;;;;;;13.93;5.43;;;;;;;8.65;55.37;102035.25;2080738;28;20239;-67
2022/05/09 04:01:56;;;;;;;10.23;5.13;;;;;;;8.64;55.54;102039.19;2081358;28;20189;-67
2022/05/09 04:02:56;;;;;;;14.70;5.00;;;;;;;8.66;55.14;102045.91;2081676;28;20181;-67
2022/05/09 04:03:59;;;;;;;10.70;5.03;;;;;;;8.04;55.48;101949.59;2081517;28;20705;-67
2022/05/09 04:05:00;;;;;;;9.73;5.05;;;;;;;8.60;55.53;102030.06;2080080;28;20203;-67
2022/05/09 04:06:01;;;;;;;11.43;5.27;;;;;;;8.67;55.31;102039.22;2080935;28;20177;-67
2022/05/09 04:07:02;;;;;;;14.57;5.30;;;;;;;8.68;55.72;102040.81;2081553;28;20174;-67
2022/05/09 04:08:07;;;;;;;14.90;4.93;;;;;;;8.70;55.04;102043.97;2080598;28;20304;-67
2022/05/09 04:09:08;;;;;;;8.38;4.80;;;;;;;8.73;56.14;102040.47;2081051;28;20173;-67
2022/05/09 04:10:10;;;;;;;9.43;4.93;;;;;;;8.52;55.86;102018.22;2080834;28;20181;-67
2022/05/09 04:11:11;;;;;;;15.43;5.45;;;;;;;8.76;56.33;102038.91;2081542;28;20174;-67
2022/05/09 04:12:11;;;;;;;6.90;4.70;;;;;;;8.06;56.31;101927.91;2081238;28;20179;-67
2022/05/09 04:13:12;;;;;;;12.67;5.23;;;;;;;8.82;55.80;102034.56;2081504;28;20629;-67
2022/05/09 04:14:15;;;;;;;17.88;5.35;;;;;;;8.87;55.54;102036.97;2081576;28;20312;-67
2022/05/09 04:16:50;;;;;;;19.80;5.30;;;;;;;8.57;55.88;101992.97;2089792;28;20254;-67
2022/05/09 04:17:50;;;;;;;18.98;6.20;;;;;;;8.96;55.80;102042.97;2089862;28;20164;-67
2022/05/09 04:18:52;;;;;;;15.83;5.40;;;;;;;8.92;56.06;102028.31;2088990;28;20189;-67
2022/05/09 04:19:52;;;;;;;16.55;5.82;;;;;;;9.00;55.73;102050.09;2089074;28;20394;-67
2022/05/09 04:20:53;;;;;;;19.00;5.40;;;;;;;9.03;55.99;102045.75;2088850;28;20262;-68
2022/05/09 04:21:54;;;;;;;20.63;5.47;;;;;;;9.06;56.40;102044.94;2085906;28;20182;-67
2022/05/09 04:22:56;;;;;;;17.03;5.37;;;;;;;9.05;56.49;102046.13;2072405;28;20245;-67
2022/05/09 04:23:58;;;;;;;15.20;5.80;;;;;;;9.13;56.14;102045.00;2072679;28;20538;-67
2022/05/09 04:24:58;;;;;;;14.63;6.43;;;;;;;8.57;56.76;101970.06;2072617;28;20447;-67
2022/05/09 04:26:00;;;;;;;15.70;6.57;;;;;;;8.55;56.00;101956.63;2073147;28;20266;-67
2022/05/09 04:27:01;;;;;;;19.65;7.60;;;;;;;9.20;56.05;102051.38;2073388;28;20229;-67
2022/05/09 04:28:05;;;;;;;25.13;5.80;;;;;;;9.29;55.63;102053.75;2073136;28;20209;-67
2022/05/09 04:29:06;;;;;;;19.02;6.03;;;;;;;9.04;55.68;102003.88;2073358;28;20205;-67
2022/05/09 04:30:09;;;;;;;16.63;5.90;;;;;;;9.35;55.45;102050.25;2072904;28;20235;-67
2022/05/09 04:31:09;;;;;;;16.35;5.68;;;;;;;9.39;55.59;102047.47;2073133;28;20183;-67
2022/05/09 04:32:10;;;;;;;13.43;5.50;;;;;;;9.42;55.38;102055.78;2073171;28;20188;-67
2022/05/09 04:33:11;;;;;;;8.07;4.27;;;;;;;9.45;55.13;102057.00;2073228;28;20294;-67
2022/05/09 04:34:11;;;;;;;9.88;4.80;;;;;;;9.48;55.30;102054.22;2073350;28;20190;-67
2022/05/09 04:35:20;;;;;;;8.83;4.60;;;;;;;9.54;55.06;102049.13;2072508;28;20701;-67
2022/05/09 04:36:26;;;;;;;13.02;5.55;;;;;;;9.59;55.72;102055.03;2073358;28;20691;-67
2022/05/09 04:37:26;;;;;;;17.42;7.43;;;;;;;9.65;55.87;102056.28;2073376;28;20166;-67
2022/05/09 04:38:27;;;;;;;15.70;8.13;;;;;;;9.72;56.74;102061.00;2073000;28;20212;-67
2022/05/09 04:39:27;;;;;;;14.13;7.67;;;;;;;9.50;55.67;102018.66;2075012;28;20184;-67
2022/05/09 04:40:30;;;;;;;18.43;6.43;;;;;;;9.83;55.57;102059.06;2077686;28;20624;-67
2022/05/09 04:41:32;;;;;;;14.57;6.38;;;;;;;9.70;55.23;102030.16;2080260;28;20181;-67
2022/05/09 04:42:33;;;;;;;20.20;9.10;;;;;;;9.89;55.61;102047.22;2072308;28;20348;-67
2022/05/09 04:43:34;;;;;;;24.50;9.47;;;;;;;9.38;55.77;101966.44;2071838;28;20445;-67
2022/05/09 04:44:34;;;;;;;21.20;7.20;;;;;;;9.88;55.14;102033.75;2079518;28;20269;-67
2022/05/09 04:45:35;;;;;;;27.07;8.67;;;;;;;9.74;55.01;102003.28;2080998;28;20273;-67
2022/05/09 04:46:36;;;;;;;20.50;7.60;;;;;;;10.09;55.56;102051.22;2077338;28;20455;-67
2022/05/09 04:47:37;;;;;;;28.17;8.17;;;;;;;10.26;55.78;102063.50;2077499;28;20210;-66
2022/05/09 04:48:40;;;;;;;33.57;9.87;;;;;;;10.32;55.81;102064.69;2079106;28;20207;-67
2022/05/09 04:49:40;;;;;;;30.80;11.90;;;;;;;10.37;55.91;102064.28;2075195;28;20426;-67
2022/05/09 04:50:41;;;;;;;21.17;8.30;;;;;;;10.13;55.98;102023.50;2077382;28;20527;-67
2022/05/09 04:51:42;;;;;;;24.10;8.53;;;;;;;10.46;55.50;102065.47;2071050;28;20501;-67
2022/05/09 04:52:42;;;;;;;21.53;8.10;;;;;;;9.99;55.59;101987.50;2078483;28;20186;-67
2022/05/09 04:53:44;;;;;;;21.17;8.07;;;;;;;10.56;55.85;102069.44;2079579;28;20195;-66
2022/05/09 04:54:44;;;;;;;21.40;8.40;;;;;;;10.70;55.92;102077.72;2079085;28;20194;-66